Time;durP1;ratioP1;P1;durP2;ratioP2;P2;SDS_P1;SDS_P2;PMS_P1;PMS_P2;Temp;Humidity;BMP_temperature;BMP_pressure;BME280_temperature;BME280_humidity;BME280_pressure;Samples;Min_cycle;Max_cycle;Signal;HPM_P1;HPM_P2
2024/01/20 00:01:59;;;;;;;0.90;0.90;;;-1.30;1.00;;;;;;5063016;28;20179;-84
2024/01/20 00:04:25;;;;;;;0.90;0.90;;;-1.20;1.00;;;;;;5060841;28;20193;-82
2024/01/20 00:06:50;;;;;;;0.97;0.97;;;-1.10;1.00;;;;;;5060182;28;20187;-82
2024/01/20 00:09:16;;;;;;;0.97;0.97;;;-1.00;1.00;;;;;;5071899;28;20209;-78
2024/01/20 00:11:42;;;;;;;0.90;0.90;;;-0.90;1.00;;;;;;5077253;28;20163;-78
2024/01/20 00:14:07;;;;;;;0.90;0.90;;;-0.80;99.90;;;;;;5074027;28;20307;-81
2024/01/20 00:16:33;;;;;;;0.97;0.97;;;-0.80;26.10;;;;;;5056488;28;20195;-85
2024/01/20 00:18:58;;;;;;;0.90;0.90;;;-0.90;1.00;;;;;;5050388;28;20285;-84
2024/01/20 00:21:24;;;;;;;0.90;0.90;;;-0.90;99.90;;;;;;5056625;28;20263;-82
2024/01/20 00:23:50;;;;;;;0.90;0.90;;;-1.00;99.90;;;;;;5036326;28;20190;-83
2024/01/20 00:26:15;;;;;;;0.90;0.90;;;-1.10;99.90;;;;;;5055933;28;20191;-83
2024/01/20 00:28:41;;;;;;;0.90;0.90;;;-1.10;99.90;;;;;;5057686;28;20167;-82
2024/01/20 00:31:07;;;;;;;1.00;1.00;;;-1.20;99.90;;;;;;5044726;28;20205;-82
2024/01/20 00:33:32;;;;;;;0.90;0.90;;;-1.40;99.90;;;;;;5056661;28;20293;-83
2024/01/20 00:35:58;;;;;;;0.90;0.90;;;-1.40;99.90;;;;;;5055398;28;20166;-84
2024/01/20 00:38:25;;;;;;;1.00;1.00;;;-1.40;1.00;;;;;;5056280;28;20190;-84
2024/01/20 00:40:52;;;;;;;0.90;0.90;;;-1.30;1.00;;;;;;5027643;28;20206;-84
2024/01/20 00:43:18;;;;;;;0.90;0.90;;;-1.30;1.00;;;;;;5057998;28;20179;-83
2024/01/20 00:45:45;;;;;;;1.00;1.00;;;-1.20;1.00;;;;;;5056613;28;20213;-83
2024/01/20 00:48:10;;;;;;;0.97;0.97;;;-1.20;99.90;;;;;;5056630;28;20168;-83
2024/01/20 00:50:36;;;;;;;0.87;0.87;;;-1.20;99.90;;;;;;5059005;28;20175;-83
2024/01/20 00:53:02;;;;;;;0.90;0.90;;;-1.30;99.90;;;;;;5056761;28;20183;-84
2024/01/20 00:55:27;;;;;;;0.90;0.90;;;-1.50;1.00;;;;;;5039070;28;20186;-81
2024/01/20 00:57:53;;;;;;;0.90;0.90;;;-1.50;1.00;;;;;;5061826;28;20220;-84
2024/01/20 01:00:19;;;;;;;0.80;0.80;;;-1.50;1.00;;;;;;5062941;28;20207;-83
2024/01/20 01:02:44;;;;;;;1.00;1.00;;;-1.60;1.00;;;;;;5072779;28;20190;-81
2024/01/20 01:05:10;;;;;;;0.90;0.90;;;-1.60;1.00;;;;;;5079453;28;20163;-82
2024/01/20 01:07:36;;;;;;;0.90;0.90;;;-1.60;1.00;;;;;;5056477;28;20199;-83
2024/01/20 01:10:03;;;;;;;0.90;0.90;;;-1.70;1.00;;;;;;5042005;28;20257;-83
2024/01/20 01:12:29;;;;;;;1.00;1.00;;;-1.70;1.00;;;;;;5059725;28;20183;-83
2024/01/20 01:14:55;;;;;;;0.90;0.90;;;-1.70;1.00;;;;;;5060369;28;20175;-83
2024/01/20 01:17:21;;;;;;;1.00;1.00;;;-1.80;1.00;;;;;;5059871;28;20269;-83
2024/01/20 01:19:46;;;;;;;0.90;0.90;;;-1.80;1.00;;;;;;5064416;28;20626;-84
2024/01/20 01:22:12;;;;;;;1.00;1.00;;;-1.80;1.00;;;;;;5059880;28;20179;-83
2024/01/20 01:24:37;;;;;;;0.90;0.90;;;-1.80;1.00;;;;;;5059682;28;20178;-80
2024/01/20 01:27:04;;;;;;;0.90;0.90;;;-1.70;1.00;;;;;;5058230;28;20214;-83
2024/01/20 01:29:30;;;;;;;1.00;1.00;;;-1.60;1.00;;;;;;5059874;28;20187;-82
2024/01/20 01:31:56;;;;;;;0.90;0.90;;;-1.60;1.00;;;;;;5060077;28;20177;-82
2024/01/20 01:34:21;;;;;;;1.00;1.00;;;-1.60;1.00;;;;;;5059770;28;20179;-84
2024/01/20 01:36:47;;;;;;;1.00;1.00;;;-1.60;1.00;;;;;;5041551;28;20203;-82
2024/01/20 01:39:12;;;;;;;1.00;1.00;;;-1.70;1.00;;;;;;5060196;28;20221;-83
2024/01/20 01:41:38;;;;;;;0.90;0.90;;;-1.60;1.00;;;;;;5060416;28;20312;-82
2024/01/20 01:44:03;;;;;;;0.80;0.80;;;-1.60;1.00;;;;;;5060389;28;20541;-83
2024/01/20 01:46:30;;;;;;;0.90;0.90;;;-1.70;1.00;;;;;;5060066;28;20210;-81
2024/01/20 01:48:57;;;;;;;1.00;1.00;;;-1.60;1.00;;;;;;5065315;28;20175;-80
2024/01/20 01:51:22;;;;;;;1.00;1.00;;;-1.50;1.00;;;;;;5059886;28;20193;-83
2024/01/20 01:53:49;;;;;;;0.90;0.90;;;-1.40;1.00;;;;;;5060034;28;20566;-83
2024/01/20 01:56:15;;;;;;;0.90;0.90;;;-1.30;1.00;;;;;;5040701;28;20203;-82
2024/01/20 01:58:44;;;;;;;1.00;1.00;;;-1.30;1.00;;;;;;5059740;28;20186;-83
2024/01/20 02:01:11;;;;;;;0.90;0.90;;;-1.40;99.90;;;;;;5060412;28;20592;-82
2024/01/20 02:03:38;;;;;;;0.80;0.80;;;-1.40;99.90;;;;;;5060944;28;20183;-82
2024/01/20 02:06:08;;;;;;;1.00;1.00;;;-1.40;99.90;;;;;;5059943;28;20219;-82
2024/01/20 02:08:35;;;;;;;0.90;0.90;;;-1.50;99.90;;;;;;5060936;28;20486;-82
2024/01/20 02:11:02;;;;;;;0.80;0.80;;;-1.60;1.00;;;;;;5070214;28;20683;-82
2024/01/20 02:13:28;;;;;;;0.90;0.90;;;-1.70;1.00;;;;;;5071643;28;20178;-82
2024/01/20 02:15:54;;;;;;;1.00;1.00;;;-1.80;1.00;;;;;;5065736;28;20175;-83
2024/01/20 02:18:22;;;;;;;0.90;0.90;;;-2.00;1.00;;;;;;5061050;28;20175;-82
2024/01/20 02:20:48;;;;;;;1.00;1.00;;;-2.00;1.00;;;;;;5061314;28;20258;-83
2024/01/20 02:23:13;;;;;;;1.10;1.10;;;-2.00;1.00;;;;;;5060056;28;20546;-82
2024/01/20 02:25:39;;;;;;;1.00;1.00;;;-2.00;1.00;;;;;;5060511;28;20258;-82
2024/01/20 02:28:06;;;;;;;1.00;1.00;;;-2.00;1.00;;;;;;5060555;28;20194;-82
2024/01/20 02:30:32;;;;;;;0.90;0.90;;;-2.10;1.00;;;;;;5060667;28;20179;-83
2024/01/20 02:32:57;;;;;;;0.93;0.93;;;-2.20;1.00;;;;;;5061951;28;20241;-82
2024/01/20 02:35:23;;;;;;;1.00;1.00;;;-2.10;1.00;;;;;;5062137;28;20186;-82
2024/01/20 02:37:48;;;;;;;0.90;0.90;;;-2.10;1.00;;;;;;5061239;28;20196;-81
2024/01/20 02:40:14;;;;;;;0.90;0.90;;;-2.20;1.00;;;;;;5066460;28;20218;-82
2024/01/20 02:42:40;;;;;;;0.90;0.90;;;-2.20;1.00;;;;;;5072444;28;20714;-83
2024/01/20 02:45:06;;;;;;;0.90;0.90;;;-2.30;1.00;;;;;;5060715;28;20179;-84
2024/01/20 02:47:31;;;;;;;0.90;0.90;;;-2.40;1.00;;;;;;5060287;28;20565;-84
2024/01/20 02:49:57;;;;;;;1.00;1.00;;;-2.40;1.00;;;;;;5060651;28;20175;-84
2024/01/20 02:52:22;;;;;;;1.00;1.00;;;-2.40;1.00;;;;;;5043755;28;20202;-82
2024/01/20 02:54:48;;;;;;;0.93;0.93;;;-2.40;1.00;;;;;;5065269;28;20217;-80
2024/01/20 02:57:13;;;;;;;1.00;1.00;;;-2.50;1.00;;;;;;5078003;28;20198;-80
2024/01/20 02:59:39;;;;;;;0.90;0.90;;;-2.40;1.00;;;;;;5074565;28;20202;-83
2024/01/20 03:02:05;;;;;;;0.90;0.90;;;-2.50;1.00;;;;;;5059557;28;20179;-82
2024/01/20 03:04:31;;;;;;;1.00;1.00;;;-2.40;1.00;;;;;;5060284;28;20243;-81
2024/01/20 03:06:56;;;;;;;1.00;1.00;;;-2.40;1.00;;;;;;5061847;28;20217;-82
2024/01/20 03:09:22;;;;;;;0.90;0.90;;;-2.40;1.00;;;;;;5063549;28;20193;-82
2024/01/20 03:11:47;;;;;;;1.00;1.00;;;-2.30;1.00;;;;;;5064228;28;20171;-82
2024/01/20 03:14:13;;;;;;;1.00;1.00;;;-2.20;1.00;;;;;;5063756;28;20260;-82
2024/01/20 03:16:39;;;;;;;1.07;1.07;;;-2.30;1.00;;;;;;5060872;28;20187;-82
2024/01/20 03:19:05;;;;;;;1.00;1.00;;;-2.30;1.00;;;;;;5061505;28;20190;-82
2024/01/20 03:21:31;;;;;;;0.90;0.90;;;-2.30;1.00;;;;;;5062248;28;20178;-82
2024/01/20 03:23:56;;;;;;;0.93;0.93;;;-2.30;1.00;;;;;;5062889;28;20171;-82
2024/01/20 03:26:23;;;;;;;1.00;1.00;;;-2.30;1.00;;;;;;5062617;28;20605;-82
2024/01/20 03:28:49;;;;;;;0.97;0.97;;;-2.20;1.00;;;;;;5057628;28;20193;-81
2024/01/20 03:31:15;;;;;;;1.00;1.00;;;-2.10;1.00;;;;;;5039159;28;20242;-81
2024/01/20 03:33:40;;;;;;;0.90;0.90;;;-2.20;1.00;;;;;;5045520;28;20210;-78
2024/01/20 03:36:07;;;;;;;0.90;0.90;;;-2.20;1.00;;;;;;5077319;28;20203;-78
2024/01/20 03:38:33;;;;;;;1.00;1.00;;;-2.30;1.00;;;;;;5077881;28;20244;-78
2024/01/20 03:40:58;;;;;;;0.90;0.90;;;-2.30;1.00;;;;;;5077988;28;20230;-79
2024/01/20 03:43:26;;;;;;;1.00;1.00;;;-2.30;1.00;;;;;;5078152;28;20219;-79
2024/01/20 03:45:53;;;;;;;1.00;1.00;;;-2.30;1.00;;;;;;5072194;28;20199;-81
2024/01/20 03:48:18;;;;;;;1.00;1.00;;;-2.30;1.00;;;;;;5063054;28;20576;-81
2024/01/20 03:50:44;;;;;;;0.90;0.90;;;-2.30;1.00;;;;;;5058196;28;20238;-82
2024/01/20 03:53:10;;;;;;;0.90;0.90;;;-2.30;1.00;;;;;;5059493;28;20185;-81
2024/01/20 03:55:36;;;;;;;0.90;0.90;;;-2.30;1.00;;;;;;5061523;28;20511;-83
2024/01/20 03:58:02;;;;;;;0.90;0.90;;;-2.30;1.00;;;;;;5057449;28;20195;-83
2024/01/20 04:00:28;;;;;;;0.90;0.90;;;-2.40;1.00;;;;;;5040799;28;20310;-82
2024/01/20 04:02:53;;;;;;;0.90;0.90;;;-2.40;1.00;;;;;;5059042;28;20213;-82
2024/01/20 04:05:19;;;;;;;1.00;1.00;;;-2.30;1.00;;;;;;5058850;28;20201;-83
2024/01/20 04:07:46;;;;;;;1.00;1.00;;;-2.30;1.00;;;;;;5059267;28;20225;-83
2024/01/20 04:10:11;;;;;;;0.90;0.90;;;-2.30;1.00;;;;;;5059396;28;20616;-83
2024/01/20 04:12:39;;;;;;;0.90;0.90;;;-2.30;1.00;;;;;;5064564;28;20171;-83
2024/01/20 04:15:06;;;;;;;1.10;1.10;;;-2.30;1.00;;;;;;5069663;28;20195;-82
2024/01/20 04:17:32;;;;;;;1.00;1.00;;;-2.20;1.00;;;;;;5053710;28;20183;-77
2024/01/20 04:19:57;;;;;;;0.90;0.90;;;-2.30;1.00;;;;;;5076917;28;20187;-80
2024/01/20 04:22:23;;;;;;;1.00;1.00;;;-2.40;1.00;;;;;;5075840;28;20185;-81
2024/01/20 04:24:48;;;;;;;0.93;0.93;;;-2.40;1.00;;;;;;5063023;28;20214;-82
2024/01/20 04:27:14;;;;;;;0.90;0.90;;;-2.50;1.00;;;;;;5058005;28;20199;-80
2024/01/20 04:29:39;;;;;;;1.00;1.00;;;-2.50;1.00;;;;;;5059317;28;20175;-82
2024/01/20 04:32:05;;;;;;;0.90;0.90;;;-2.50;1.00;;;;;;5057322;28;20266;-82
2024/01/20 04:34:31;;;;;;;1.00;1.00;;;-2.60;1.00;;;;;;5058954;28;20597;-81
2024/01/20 04:36:56;;;;;;;1.00;1.00;;;-2.60;1.00;;;;;;5059172;28;20197;-82
2024/01/20 04:39:22;;;;;;;1.00;1.00;;;-2.10;1.00;;;;;;5058172;28;20207;-83
2024/01/20 04:41:48;;;;;;;1.00;1.00;;;-2.70;1.00;;;;;;5068698;28;20171;-80
2024/01/20 04:44:13;;;;;;;0.97;0.97;;;-2.90;1.00;;;;;;5075913;28;20159;-81
2024/01/20 04:46:39;;;;;;;0.90;0.90;;;-2.90;1.00;;;;;;5075460;28;20213;-79
2024/01/20 04:49:05;;;;;;;1.00;1.00;;;-2.80;1.00;;;;;;5075108;28;20198;-79
2024/01/20 04:51:30;;;;;;;1.00;1.00;;;-2.90;1.00;;;;;;5075051;28;20186;-80
2024/01/20 04:53:56;;;;;;;0.80;0.80;;;-2.90;1.00;;;;;;5074800;28;20218;-81
2024/01/20 04:56:22;;;;;;;0.90;0.90;;;-2.80;1.00;;;;;;5060496;28;20599;-82
2024/01/20 04:58:49;;;;;;;0.90;0.90;;;-2.80;1.00;;;;;;5059134;28;20186;-82
2024/01/20 05:01:15;;;;;;;0.97;0.97;;;-2.80;1.00;;;;;;5058795;28;20214;-82
2024/01/20 05:03:40;;;;;;;1.10;1.10;;;-2.80;1.00;;;;;;5059122;28;20182;-82
2024/01/20 05:06:06;;;;;;;1.00;1.00;;;-2.80;1.00;;;;;;5058653;28;20225;-81
2024/01/20 05:08:32;;;;;;;1.00;1.00;;;-2.90;1.00;;;;;;5058815;28;20255;-81
2024/01/20 05:10:57;;;;;;;0.90;0.90;;;-3.10;1.00;;;;;;5043385;28;20210;-83
2024/01/20 05:13:23;;;;;;;1.00;1.00;;;-3.10;1.00;;;;;;5055036;28;20175;-80
2024/01/20 05:15:48;;;;;;;0.90;0.90;;;-3.00;1.00;;;;;;5074000;28;20231;-79
2024/01/20 05:18:14;;;;;;;0.90;0.90;;;-3.10;1.00;;;;;;5073441;28;20178;-80
2024/01/20 05:20:39;;;;;;;0.90;0.90;;;-3.00;1.00;;;;;;5073278;28;20214;-79
2024/01/20 05:23:07;;;;;;;0.90;0.90;;;-3.10;1.00;;;;;;5073674;28;20183;-79
2024/01/20 05:25:33;;;;;;;0.90;0.90;;;-3.10;1.00;;;;;;5056244;28;20282;-79
2024/01/20 05:27:58;;;;;;;1.00;1.00;;;-3.10;1.00;;;;;;5073080;28;20199;-80
2024/01/20 05:30:24;;;;;;;1.10;1.10;;;-3.10;1.00;;;;;;5073364;28;20231;-80
2024/01/20 05:32:50;;;;;;;0.90;0.90;;;-3.20;1.00;;;;;;5073333;28;20185;-80
2024/01/20 05:35:18;;;;;;;1.00;1.00;;;-3.30;1.00;;;;;;5073312;28;20251;-79
2024/01/20 05:37:44;;;;;;;0.97;0.97;;;-3.30;1.00;;;;;;5073107;28;20194;-79
2024/01/20 05:40:10;;;;;;;1.00;1.00;;;-3.30;1.00;;;;;;5056232;28;20207;-79
2024/01/20 05:42:36;;;;;;;0.90;0.90;;;-3.20;1.00;;;;;;5059954;28;20179;-78
2024/01/20 05:45:02;;;;;;;0.97;0.97;;;-3.30;1.00;;;;;;5079978;28;20168;-78
2024/01/20 05:47:27;;;;;;;0.90;0.90;;;-3.30;1.00;;;;;;5071449;28;20209;-81
2024/01/20 05:49:53;;;;;;;1.00;1.00;;;-3.30;1.00;;;;;;5060642;28;20175;-82
2024/01/20 05:52:18;;;;;;;1.00;1.00;;;-3.30;1.00;;;;;;5060779;28;20168;-81
2024/01/20 05:54:44;;;;;;;1.10;1.10;;;-3.40;1.00;;;;;;5066290;28;20237;-82
2024/01/20 05:57:10;;;;;;;1.00;1.00;;;-3.50;1.00;;;;;;5059802;28;20681;-83
2024/01/20 05:59:36;;;;;;;1.00;1.00;;;-3.50;1.00;;;;;;5059126;28;20207;-83
2024/01/20 06:02:01;;;;;;;1.07;1.07;;;-3.50;1.00;;;;;;5059715;28;20171;-82
2024/01/20 06:04:27;;;;;;;1.00;1.00;;;-3.40;1.00;;;;;;5059974;28;20176;-83
2024/01/20 06:06:52;;;;;;;1.10;1.10;;;-3.30;1.00;;;;;;5059172;28;20199;-82
2024/01/20 06:09:18;;;;;;;1.00;1.00;;;-3.30;1.00;;;;;;5059003;28;20163;-83
2024/01/20 06:11:44;;;;;;;1.00;1.00;;;-3.40;1.00;;;;;;5059208;28;20180;-83
2024/01/20 06:14:09;;;;;;;1.00;1.00;;;-3.30;1.00;;;;;;5059698;28;20168;-81
2024/01/20 06:16:38;;;;;;;1.00;1.00;;;-3.30;1.00;;;;;;5061849;28;20266;-81
2024/01/20 06:19:04;;;;;;;1.00;1.00;;;-3.40;1.00;;;;;;5065939;28;20185;-80
2024/01/20 06:21:30;;;;;;;1.00;1.00;;;-3.40;1.00;;;;;;5066596;28;20202;-83
2024/01/20 06:23:56;;;;;;;1.00;1.00;;;-3.50;1.00;;;;;;5044448;28;20263;-80
2024/01/20 06:26:21;;;;;;;0.83;0.83;;;-3.50;1.00;;;;;;5043651;28;20238;-83
2024/01/20 06:28:47;;;;;;;0.90;0.90;;;-3.60;1.00;;;;;;5059199;28;20513;-81
2024/01/20 06:31:23;;;;;;;1.00;1.00;;;-3.60;1.00;;;;;;5060943;28;20182;-82
2024/01/20 06:33:48;;;;;;;0.90;0.90;;;-3.60;1.00;;;;;;5060621;28;20271;-83
2024/01/20 06:36:14;;;;;;;1.00;1.00;;;-3.60;1.00;;;;;;5060427;28;20191;-82
2024/01/20 06:38:40;;;;;;;1.00;1.00;;;-3.60;1.00;;;;;;5059977;28;20187;-81
2024/01/20 06:41:05;;;;;;;1.00;1.00;;;-3.60;1.00;;;;;;5060184;28;20219;-83
2024/01/20 06:43:31;;;;;;;1.00;1.00;;;-3.70;1.00;;;;;;5060449;28;20195;-82
2024/01/20 06:45:59;;;;;;;0.90;0.90;;;-3.70;1.00;;;;;;5059419;28;20182;-82
2024/01/20 06:48:26;;;;;;;0.90;0.90;;;-3.70;1.00;;;;;;5059599;28;20186;-82
2024/01/20 06:50:52;;;;;;;0.93;0.93;;;-3.70;1.00;;;;;;5059283;28;20175;-80
2024/01/20 06:53:19;;;;;;;1.00;1.00;;;-3.70;1.00;;;;;;5058477;28;20186;-82
2024/01/20 06:55:44;;;;;;;1.00;1.00;;;-3.80;1.00;;;;;;5057821;28;20194;-84
2024/01/20 06:58:10;;;;;;;1.03;1.03;;;-3.80;1.00;;;;;;5040357;28;20242;-82
2024/01/20 07:00:36;;;;;;;0.90;0.90;;;-3.80;1.00;;;;;;5057703;28;20203;-82
2024/01/20 07:03:03;;;;;;;0.93;0.93;;;-3.90;1.00;;;;;;5058545;28;20175;-82
2024/01/20 07:05:29;;;;;;;0.90;0.90;;;-3.90;1.00;;;;;;5061064;28;20194;-85
2024/01/20 07:07:54;;;;;;;0.80;0.80;;;-3.90;1.00;;;;;;5061860;28;20218;-82
2024/01/20 07:10:20;;;;;;;0.97;0.97;;;-3.90;1.00;;;;;;5042351;28;20182;-82
2024/01/20 07:12:46;;;;;;;1.00;1.00;;;-4.00;1.00;;;;;;5057791;28;20187;-83
2024/01/20 07:15:11;;;;;;;1.00;1.00;;;-4.00;1.00;;;;;;5057774;28;20190;-87
2024/01/20 07:17:37;;;;;;;0.93;0.93;;;-3.90;1.00;;;;;;5059225;28;20203;-84
2024/01/20 07:20:03;;;;;;;0.90;0.90;;;-3.90;1.00;;;;;;5059841;28;20199;-84
2024/01/20 07:22:29;;;;;;;0.90;0.90;;;-3.70;1.00;;;;;;5058965;28;20171;-85
2024/01/20 07:24:55;;;;;;;0.90;0.90;;;-3.70;1.00;;;;;;5058089;28;20411;-83
2024/01/20 07:27:20;;;;;;;0.97;0.97;;;-3.70;1.00;;;;;;5059857;28;20202;-83
2024/01/20 07:29:46;;;;;;;1.00;1.00;;;-3.60;1.00;;;;;;5059187;28;20176;-84
2024/01/20 07:32:12;;;;;;;1.10;1.10;;;-3.40;11.50;;;;;;5059691;28;20167;-84
2024/01/20 07:34:37;;;;;;;1.00;1.00;;;-3.40;1.00;;;;;;5045763;28;20163;-84
2024/01/20 07:37:03;;;;;;;0.90;0.90;;;-3.40;1.00;;;;;;5046910;28;20214;-85
2024/01/20 07:39:30;;;;;;;1.00;1.00;;;-3.30;1.00;;;;;;5064228;28;20265;-87
2024/01/20 07:41:55;;;;;;;1.00;1.00;;;-3.40;1.00;;;;;;5066510;28;20176;-82
2024/01/20 07:44:21;;;;;;;1.00;1.00;;;-3.40;1.00;;;;;;5057059;28;20199;-83
2024/01/20 07:46:49;;;;;;;1.00;1.00;;;-3.40;1.00;;;;;;5073564;28;20202;-82
2024/01/20 07:49:14;;;;;;;0.90;0.90;;;-3.30;1.00;;;;;;5072092;28;20187;-83
2024/01/20 07:51:40;;;;;;;0.90;0.90;;;-3.20;1.00;;;;;;5070770;28;20194;-81
2024/01/20 07:54:06;;;;;;;1.00;1.00;;;-3.30;1.00;;;;;;5071080;28;20183;-83
2024/01/20 07:56:31;;;;;;;0.97;0.97;;;-3.20;1.00;;;;;;5070004;28;20233;-82
2024/01/20 07:58:57;;;;;;;0.90;0.90;;;-3.20;1.00;;;;;;5067053;28;20171;-82
2024/01/20 08:01:23;;;;;;;1.00;1.00;;;-3.10;1.00;;;;;;5073380;28;20199;-84
2024/01/20 08:03:48;;;;;;;0.90;0.90;;;-3.30;1.00;;;;;;5073415;28;20167;-82
2024/01/20 08:06:14;;;;;;;1.03;1.03;;;-3.50;1.00;;;;;;5072206;28;20214;-82
2024/01/20 08:08:40;;;;;;;0.90;0.90;;;-3.40;1.00;;;;;;5054868;28;20177;-83
2024/01/20 08:11:06;;;;;;;1.00;1.00;;;-3.30;1.00;;;;;;5073531;28;20175;-84
2024/01/20 08:13:31;;;;;;;0.97;0.97;;;-3.20;1.00;;;;;;5071821;28;20242;-85
2024/01/20 08:15:57;;;;;;;0.90;0.90;;;-3.20;1.00;;;;;;5067122;28;20175;-84
2024/01/20 08:18:23;;;;;;;1.00;1.00;;;-3.30;1.00;;;;;;5065129;28;20303;-84
2024/01/20 08:20:48;;;;;;;0.90;0.90;;;-3.20;1.00;;;;;;5064106;28;20328;-83
2024/01/20 08:23:14;;;;;;;1.00;1.00;;;-3.30;1.00;;;;;;5046795;28;20179;-85
2024/01/20 08:25:42;;;;;;;0.90;0.90;;;-3.30;1.00;;;;;;5068984;28;20187;-83
2024/01/20 08:28:07;;;;;;;0.90;0.90;;;-3.20;1.00;;;;;;5050680;28;20274;-81
2024/01/20 08:30:33;;;;;;;1.00;1.00;;;-3.10;1.00;;;;;;5072636;28;20187;-82
2024/01/20 08:32:59;;;;;;;1.00;1.00;;;-2.90;1.00;;;;;;5070610;28;20199;-85
2024/01/20 08:35:24;;;;;;;1.03;1.03;;;-2.90;1.00;;;;;;5074261;28;20195;-85
2024/01/20 08:37:50;;;;;;;1.00;1.00;;;-3.00;1.00;;;;;;5073693;28;20206;-83
2024/01/20 08:40:15;;;;;;;1.00;1.00;;;-3.10;1.00;;;;;;5072229;28;20203;-83
2024/01/20 08:42:41;;;;;;;0.90;0.90;;;-3.00;1.00;;;;;;5071992;28;20171;-84
2024/01/20 08:45:07;;;;;;;0.90;0.90;;;-3.00;1.00;;;;;;5072737;28;20234;-81
2024/01/20 08:47:33;;;;;;;1.10;1.10;;;-3.10;1.00;;;;;;5075977;28;20190;-83
2024/01/20 08:49:58;;;;;;;0.90;0.90;;;-3.10;1.00;;;;;;5075473;28;20171;-89
2024/01/20 08:52:24;;;;;;;1.10;1.10;;;-3.10;1.00;;;;;;5071825;28;20182;-84
2024/01/20 08:54:50;;;;;;;0.90;0.90;;;-3.10;1.00;;;;;;5070265;28;20214;-88
2024/01/20 08:57:15;;;;;;;1.10;1.10;;;-3.00;1.00;;;;;;5068677;28;20199;-83
2024/01/20 08:59:41;;;;;;;0.90;0.90;;;-3.10;1.00;;;;;;5054573;28;20210;-83
2024/01/20 09:02:07;;;;;;;0.97;0.97;;;-3.00;1.00;;;;;;5071931;28;20175;-83
2024/01/20 09:04:32;;;;;;;0.90;0.90;;;-2.80;1.00;;;;;;5072771;28;20195;-86
2024/01/20 09:06:58;;;;;;;0.90;0.90;;;-2.80;1.00;;;;;;5069757;28;20297;-86
2024/01/20 09:09:23;;;;;;;0.93;0.93;;;-2.80;1.00;;;;;;5072564;28;20307;-86
2024/01/20 09:11:49;;;;;;;0.80;0.80;;;-2.80;1.00;;;;;;5073150;28;20180;-86
2024/01/20 09:14:15;;;;;;;1.00;1.00;;;-2.70;1.00;;;;;;5072871;28;20179;-85
2024/01/20 09:16:40;;;;;;;1.00;1.00;;;-2.80;1.00;;;;;;5071546;28;20578;-85
2024/01/20 09:19:07;;;;;;;0.90;0.90;;;-2.80;1.00;;;;;;5057993;28;20179;-85
2024/01/20 09:21:33;;;;;;;0.90;0.90;;;-2.30;1.00;;;;;;5059367;28;20260;-83
2024/01/20 09:24:00;;;;;;;0.90;0.90;;;-2.80;1.00;;;;;;5078323;28;20191;-84
2024/01/20 09:26:26;;;;;;;0.90;0.90;;;-2.80;1.00;;;;;;5073991;28;20191;-84
2024/01/20 09:28:52;;;;;;;0.90;0.90;;;-2.80;1.00;;;;;;5058535;28;20175;-86
2024/01/20 09:31:20;;;;;;;1.00;1.00;;;-2.60;1.00;;;;;;5077979;28;20186;-85
2024/01/20 09:33:46;;;;;;;1.00;1.00;;;-2.60;1.00;;;;;;5074037;28;20187;-83
2024/01/20 09:36:12;;;;;;;1.00;1.00;;;-2.70;1.00;;;;;;5076222;28;20195;-82
2024/01/20 09:38:37;;;;;;;1.00;1.00;;;-2.70;1.00;;;;;;5075827;28;20271;-82
2024/01/20 09:41:09;;;;;;;0.73;0.73;;;-2.60;1.00;;;;;;5075173;28;20423;-81
2024/01/20 09:43:39;;;;;;;0.90;0.90;;;-2.70;1.00;;;;;;5076104;28;20183;-83
2024/01/20 09:46:05;;;;;;;0.90;0.90;;;-2.70;1.00;;;;;;5071809;28;20564;-85
2024/01/20 09:48:31;;;;;;;0.90;0.90;;;-2.70;1.00;;;;;;5063819;28;20210;-84
2024/01/20 09:50:58;;;;;;;1.03;1.03;;;-2.70;1.00;;;;;;5058223;28;20180;-86
2024/01/20 09:53:25;;;;;;;0.90;0.90;;;-2.70;1.00;;;;;;5049034;28;20186;-80
2024/01/20 09:55:50;;;;;;;0.90;0.90;;;-2.60;1.00;;;;;;5063724;28;20171;-81
2024/01/20 09:58:17;;;;;;;0.90;0.90;;;-2.60;1.00;;;;;;5079204;28;20178;-81
2024/01/20 10:00:43;;;;;;;0.90;0.90;;;-2.50;1.00;;;;;;5070089;28;20758;-82
2024/01/20 10:03:11;;;;;;;0.90;0.90;;;-2.60;99.90;;;;;;5064160;28;20183;-84
2024/01/20 10:05:37;;;;;;;0.90;0.90;;;-2.70;99.90;;;;;;5029599;28;20213;-83
2024/01/20 10:08:04;;;;;;;1.00;1.00;;;-2.40;99.90;;;;;;5044728;28;20203;-84
2024/01/20 10:10:31;;;;;;;0.90;0.90;;;-2.30;76.40;;;;;;5046755;28;20192;-84
2024/01/20 10:13:00;;;;;;;0.90;0.90;;;-2.30;89.80;;;;;;5055886;28;20179;-80
2024/01/20 10:15:29;;;;;;;0.90;0.90;;;-2.30;1.00;;;;;;5068970;28;20194;-84
2024/01/20 10:17:56;;;;;;;0.93;0.93;;;-2.30;1.00;;;;;;5064644;28;20206;-84
2024/01/20 10:20:31;;;;;;;1.00;1.00;;;-2.10;1.00;;;;;;5063108;28;20264;-85
2024/01/20 10:22:59;;;;;;;0.97;0.97;;;-2.10;99.90;;;;;;5060604;28;20178;-83
2024/01/20 10:25:26;;;;;;;1.00;1.00;;;-2.10;1.00;;;;;;5041574;28;20195;-84
2024/01/20 10:27:51;;;;;;;1.00;1.00;;;-2.00;1.00;;;;;;5059621;28;20196;-83
2024/01/20 10:30:18;;;;;;;0.90;0.90;;;-1.90;1.00;;;;;;5058547;28;20656;-84
2024/01/20 10:32:44;;;;;;;0.90;0.90;;;-1.80;99.90;;;;;;5040249;28;20183;-82
2024/01/20 10:35:10;;;;;;;0.90;0.90;;;-1.80;1.00;;;;;;5058124;28;20688;-83
2024/01/20 10:37:42;;;;;;;0.83;0.83;;;-1.70;1.00;;;;;;5058270;28;20199;-83
2024/01/20 10:40:13;;;;;;;0.90;0.90;;;-1.40;1.00;;;;;;5058472;28;20225;-84
2024/01/20 10:42:47;;;;;;;1.00;1.00;;;-1.30;1.00;;;;;;5056823;28;20189;-83
2024/01/20 10:45:18;;;;;;;0.83;0.83;;;-1.00;99.90;;;;;;5061136;28;20674;-83
2024/01/20 10:48:26;;;;;;;0.90;0.90;;;-0.60;1.00;;;;;;5039758;28;20199;-84
2024/01/20 10:50:55;;;;;;;0.90;0.90;;;-0.30;1.00;;;;;;5059214;28;20179;-84
2024/01/20 10:53:22;;;;;;;0.90;0.90;;;0.30;99.90;;;;;;5057360;28;20183;-84
2024/01/20 10:55:48;;;;;;;0.90;0.90;;;0.90;1.00;;;;;;5058064;28;20675;-83
2024/01/20 10:58:17;;;;;;;0.80;0.80;;;1.80;99.90;;;;;;5058267;28;20168;-83
2024/01/20 11:00:43;;;;;;;0.87;0.87;;;2.90;45.40;;;;;;5058760;28;20206;-82
2024/01/20 11:03:09;;;;;;;0.60;0.60;;;4.00;1.00;;;;;;5065125;28;20191;-82
2024/01/20 11:05:35;;;;;;;0.60;0.60;;;4.90;1.00;;;;;;5074330;28;20182;-80
2024/01/20 11:08:08;;;;;;;0.60;0.60;;;5.30;1.00;;;;;;5065688;28;20195;-82
2024/01/20 11:10:45;;;;;;;0.70;0.70;;;5.40;1.00;;;;;;5063955;28;20183;-84
2024/01/20 11:13:13;;;;;;;0.60;0.60;;;6.20;1.00;;;;;;5066649;28;20159;-80
2024/01/20 11:15:41;;;;;;;0.60;0.60;;;6.70;1.00;;;;;;5077007;28;20185;-81
2024/01/20 11:18:20;;;;;;;0.70;0.70;;;6.60;1.00;;;;;;5058833;28;20183;-81
2024/01/20 11:21:00;;;;;;;0.60;0.60;;;6.60;1.00;;;;;;5062809;28;20203;-83
2024/01/20 11:23:26;;;;;;;0.60;0.60;;;7.70;1.00;;;;;;5057404;28;20224;-83
2024/01/20 11:25:54;;;;;;;0.60;0.60;;;8.40;1.00;;;;;;5039003;28;20187;-82
2024/01/20 11:28:33;;;;;;;0.47;0.47;;;8.00;1.00;;;;;;5059119;28;20179;-83
2024/01/20 11:31:00;;;;;;;0.60;0.60;;;8.30;1.00;;;;;;5058332;28;20671;-82
2024/01/20 11:33:27;;;;;;;0.67;0.67;;;8.60;1.00;;;;;;5062358;28;20171;-84
2024/01/20 11:35:54;;;;;;;0.60;0.60;;;8.80;1.00;;;;;;5057313;28;20195;-82
2024/01/20 11:38:21;;;;;;;0.50;0.50;;;8.80;1.00;;;;;;5055290;28;20179;-83
2024/01/20 11:41:00;;;;;;;0.40;0.40;;;8.80;1.00;;;;;;5055088;28;20894;-83
2024/01/20 11:43:26;;;;;;;0.47;0.47;;;8.40;1.00;;;;;;5037218;28;20191;-84
2024/01/20 11:45:52;;;;;;;0.50;0.50;;;8.30;1.00;;;;;;5068760;28;20190;-83
2024/01/20 11:48:21;;;;;;;0.40;0.40;;;8.00;1.00;;;;;;5071477;28;20187;-82
2024/01/20 11:50:47;;;;;;;0.60;0.60;;;7.40;1.00;;;;;;5073510;28;20195;-83
2024/01/20 11:53:13;;;;;;;0.60;0.60;;;6.50;1.00;;;;;;5073459;28;20171;-82
2024/01/20 11:55:38;;;;;;;0.70;0.70;;;5.60;1.00;;;;;;5073593;28;20209;-81
2024/01/20 11:58:04;;;;;;;0.60;0.60;;;5.10;1.00;;;;;;5075160;28;20229;-82
2024/01/20 12:00:29;;;;;;;0.60;0.60;;;4.70;1.00;;;;;;5056354;28;20207;-82
2024/01/20 12:02:55;;;;;;;0.70;0.70;;;3.90;1.00;;;;;;5074401;28;20190;-82
2024/01/20 12:05:21;;;;;;;0.70;0.70;;;3.50;1.00;;;;;;5072345;28;20183;-82
2024/01/20 12:07:47;;;;;;;0.80;0.80;;;3.20;1.00;;;;;;5072097;28;20229;-82
2024/01/20 12:10:16;;;;;;;0.80;0.80;;;3.00;1.00;;;;;;5072542;28;20186;-82
2024/01/20 12:12:42;;;;;;;0.70;0.70;;;2.00;1.00;;;;;;5071685;28;20174;-80
2024/01/20 12:15:09;;;;;;;0.73;0.73;;;2.20;1.00;;;;;;5073619;28;20171;-83
2024/01/20 12:17:35;;;;;;;0.80;0.80;;;1.60;1.00;;;;;;5052339;28;20195;-81
2024/01/20 12:20:01;;;;;;;0.83;0.83;;;1.40;1.00;;;;;;5072738;28;20205;-82
2024/01/20 12:22:26;;;;;;;0.80;0.80;;;1.70;1.00;;;;;;5054076;28;20186;-81
2024/01/20 12:24:55;;;;;;;0.83;0.83;;;1.60;1.00;;;;;;5069197;28;20175;-83
2024/01/20 12:27:20;;;;;;;0.80;0.80;;;1.70;1.00;;;;;;5076284;28;20237;-79
2024/01/20 12:29:46;;;;;;;0.80;0.80;;;2.10;1.00;;;;;;5077159;28;20175;-81
2024/01/20 12:32:12;;;;;;;0.93;0.93;;;2.20;1.00;;;;;;5077350;28;20176;-80
2024/01/20 12:34:37;;;;;;;0.90;0.90;;;2.30;1.00;;;;;;5077090;28;20163;-81
2024/01/20 12:37:03;;;;;;;0.90;0.90;;;2.40;1.00;;;;;;5076696;28;20319;-79
2024/01/20 12:39:29;;;;;;;0.80;0.80;;;2.70;1.00;;;;;;5076932;28;20187;-84
2024/01/20 12:41:56;;;;;;;0.80;0.80;;;3.00;1.00;;;;;;5070253;28;20183;-83
2024/01/20 12:44:21;;;;;;;0.80;0.80;;;3.20;1.00;;;;;;5059597;28;20278;-82
2024/01/20 12:46:47;;;;;;;0.70;0.70;;;3.70;1.00;;;;;;5057627;28;20230;-84
2024/01/20 12:49:14;;;;;;;0.70;0.70;;;3.90;1.00;;;;;;5058129;28;20234;-84
2024/01/20 12:51:40;;;;;;;0.67;0.67;;;4.40;1.00;;;;;;5039056;28;20180;-82
2024/01/20 12:54:07;;;;;;;0.70;0.70;;;5.30;1.00;;;;;;5057648;28;20174;-83